Terminal Aerodrome Forecast
Issued by NWS Jackson, MS

Home | Current Version | Previous Version | Text Only | Print | Product List | Glossary On
Versions: 1 2 3 4 5 6 7 8 9 10 11 12 13 14 15
000
FTUS44 KJAN 161720
TAFMEI
TAF
KMEI 161720Z 1618/1718 17011KT P6SM SCT025 BKN035
     FM162000 18011KT P6SM VCSH BKN035
     FM170300 17009KT P6SM BKN050
     FM170600 18007KT 6SM BR OVC007
     FM170800 19005KT 4SM BR OVC007
     FM171100 19004KT 2SM BR OVC003
     FM171500 20007KT 4SM BR OVC007=

USA.gov is the U.S. government's official web portal to all federal, state and local government web resources and services.